createdAt,value
2022-08-17T00:01:17.527Z,86.55
2022-08-17T00:03:53.837Z,85.18
2022-08-17T00:06:29.321Z,83.13
2022-08-17T00:09:05.486Z,85.09
2022-08-17T00:11:40.806Z,81.73
2022-08-17T00:14:16.551Z,82.90
2022-08-17T00:16:57.411Z,80.45
2022-08-17T00:19:30.301Z,80.58
2022-08-17T00:22:34.131Z,80.13
2022-08-17T00:24:58.935Z,81.67
2022-08-17T00:27:31.348Z,80.08
2022-08-17T00:30:09.872Z,81.18
2022-08-17T00:33:14.104Z,79.00
2022-08-17T00:35:39.770Z,80.68
2022-08-17T00:38:12.430Z,81.07
2022-08-17T00:40:52.651Z,80.58
2022-08-17T00:43:34.270Z,81.21
2022-08-17T00:46:14.899Z,78.82
2022-08-17T00:48:48.425Z,77.01
2022-08-17T00:51:33.977Z,77.01
2022-08-17T00:54:15.104Z,77.58
2022-08-17T00:56:58.864Z,80.30
2022-08-17T00:59:36.946Z,78.88
2022-08-17T01:02:14.303Z,82.37
2022-08-17T01:04:49.709Z,83.12
2022-08-17T01:07:25.175Z,79.09
2022-08-17T01:10:00.058Z,81.51
2022-08-17T01:12:35.002Z,78.64
2022-08-17T01:15:07.896Z,79.56
2022-08-17T01:17:40.762Z,79.85
2022-08-17T01:20:13.563Z,82.14
2022-08-17T01:22:46.003Z,83.85
2022-08-17T01:25:20.230Z,81.32
2022-08-17T01:27:52.836Z,82.23
2022-08-17T01:30:57.088Z,80.14
2022-08-17T01:33:17.732Z,84.24
2022-08-17T01:35:50.635Z,81.29
2022-08-17T01:38:27.042Z,81.25
2022-08-17T01:41:09.406Z,83.35
2022-08-17T01:43:48.159Z,82.00
2022-08-17T01:46:27.237Z,82.21
2022-08-17T01:49:01.206Z,83.00
2022-08-17T01:51:33.954Z,82.50
2022-08-17T01:54:13.420Z,82.54
2022-08-17T01:56:49.762Z,83.55
2022-08-17T01:59:22.286Z,85.65
2022-08-17T02:01:54.759Z,86.19
2022-08-17T02:04:27.335Z,86.57
2022-08-17T02:06:59.833Z,85.38
2022-08-17T02:09:32.982Z,82.74
2022-08-17T02:12:38.324Z,85.95
2022-08-17T02:14:59.631Z,86.37
2022-08-17T02:17:32.495Z,86.24
2022-08-17T02:20:05.773Z,86.23
2022-08-17T02:22:40.368Z,85.84
2022-08-17T02:25:16.651Z,85.35
2022-08-17T02:27:49.130Z,85.97
2022-08-17T02:30:59.741Z,86.89
2022-08-17T02:33:15.265Z,86.01
2022-08-17T02:35:48.515Z,86.69
2022-08-17T02:38:21.035Z,86.51
2022-08-17T02:40:53.477Z,89.05
2022-08-17T02:43:27.569Z,87.74
2022-08-17T02:45:59.997Z,85.63
2022-08-17T02:48:32.471Z,85.64
2022-08-17T02:51:05.033Z,85.08
2022-08-17T02:53:37.523Z,86.29
2022-08-17T02:56:09.968Z,86.93
2022-08-17T02:58:42.582Z,86.72
2022-08-17T03:01:15.802Z,86.23
2022-08-17T03:03:48.310Z,86.91
2022-08-17T03:06:20.799Z,86.65
2022-08-17T03:08:54.571Z,87.04
2022-08-17T03:11:27.037Z,86.44
2022-08-17T03:13:59.554Z,85.55
2022-08-17T03:16:31.987Z,86.16
2022-08-17T03:19:05.942Z,87.45
2022-08-17T03:21:38.454Z,86.90
2022-08-17T03:24:10.859Z,89.69
2022-08-17T03:26:43.947Z,91.75
2022-08-17T03:29:19.149Z,91.51
2022-08-17T03:31:52.352Z,100.00
2022-08-17T03:34:24.835Z,100.00
2022-08-17T03:36:57.258Z,100.00
2022-08-17T03:39:29.832Z,100.00
2022-08-17T03:42:09.049Z,100.00
2022-08-17T03:45:03.094Z,100.00
2022-08-17T03:47:54.386Z,100.00
2022-08-17T03:50:45.765Z,100.00
2022-08-17T03:53:36.695Z,100.00
2022-08-17T03:56:27.728Z,100.00
2022-08-17T03:59:00.322Z,100.00
2022-08-17T04:01:32.858Z,100.00
2022-08-17T04:04:05.882Z,100.00
2022-08-17T04:06:38.688Z,100.00
2022-08-17T04:09:12.633Z,100.00
2022-08-17T04:11:45.191Z,100.00
2022-08-17T04:14:17.641Z,100.00
2022-08-17T04:16:50.129Z,100.00
2022-08-17T04:19:22.690Z,100.00
2022-08-17T04:21:55.116Z,100.00
2022-08-17T04:24:27.600Z,100.00
2022-08-17T04:27:01.563Z,100.00
2022-08-17T04:29:50.080Z,100.00
2022-08-17T04:33:05.012Z,100.00
2022-08-17T04:35:26.177Z,100.00
2022-08-17T04:37:58.973Z,100.00
2022-08-17T04:40:50.322Z,100.00
2022-08-17T04:43:25.284Z,100.00
2022-08-17T04:46:01.267Z,100.00
2022-08-17T04:48:40.154Z,100.00
2022-08-17T04:51:23.391Z,100.00
2022-08-17T04:53:58.703Z,100.00
2022-08-17T04:56:32.502Z,100.00
2022-08-17T04:59:16.447Z,100.00
2022-08-17T05:01:50.851Z,100.00
2022-08-17T05:04:33.966Z,100.00
2022-08-17T05:07:07.769Z,100.00
2022-08-17T05:09:40.191Z,100.00
2022-08-17T05:12:12.870Z,100.00
2022-08-17T05:14:45.289Z,100.00
2022-08-17T05:17:17.726Z,100.00
2022-08-17T05:19:52.138Z,100.00
2022-08-17T05:22:24.611Z,100.00
2022-08-17T05:24:57.066Z,100.00
2022-08-17T05:27:34.439Z,100.00
2022-08-17T05:30:09.493Z,100.00
2022-08-17T05:32:58.877Z,100.00
2022-08-17T05:35:35.279Z,100.00
2022-08-17T05:38:09.361Z,100.00
2022-08-17T05:40:42.854Z,100.00
2022-08-17T05:43:22.358Z,100.00
2022-08-17T05:46:06.973Z,100.00
2022-08-17T05:48:46.107Z,100.00
2022-08-17T05:51:49.260Z,100.00
2022-08-17T05:54:21.675Z,100.00
2022-08-17T05:57:11.532Z,100.00
2022-08-17T06:00:08.168Z,100.00
2022-08-17T06:02:51.682Z,100.00
2022-08-17T06:05:39.503Z,100.00
2022-08-17T06:08:24.250Z,100.00
2022-08-17T06:10:56.780Z,100.00
2022-08-17T06:13:47.207Z,100.00
2022-08-17T06:16:34.027Z,100.00
2022-08-17T06:19:25.674Z,100.00
2022-08-17T06:21:58.868Z,100.00
2022-08-17T06:24:40.455Z,100.00
2022-08-17T06:27:29.995Z,100.00
2022-08-17T06:30:14.097Z,100.00
2022-08-17T06:32:49.906Z,100.00
2022-08-17T06:35:37.516Z,100.00
2022-08-17T06:38:53.205Z,100.00
2022-08-17T06:41:43.515Z,100.00
2022-08-17T06:44:43.402Z,100.00
2022-08-17T06:47:28.321Z,100.00
2022-08-17T06:50:15.600Z,100.00
2022-08-17T06:52:55.604Z,100.00
2022-08-17T06:55:54.686Z,100.00
2022-08-17T06:58:31.259Z,100.00
2022-08-17T07:01:09.635Z,100.00
2022-08-17T07:03:59.452Z,100.00
2022-08-17T07:06:50.412Z,100.00
2022-08-17T07:09:28.764Z,100.00
2022-08-17T07:12:05.796Z,98.69
2022-08-17T07:14:47.613Z,100.00
2022-08-17T07:17:21.891Z,100.00
2022-08-17T07:20:17.904Z,100.00
2022-08-17T07:23:18.006Z,99.86
2022-08-17T07:25:50.461Z,100.00
2022-08-17T07:28:23.453Z,100.00
2022-08-17T07:30:55.926Z,98.80
2022-08-17T07:33:32.398Z,96.48
2022-08-17T07:36:05.660Z,99.19
2022-08-17T07:38:55.759Z,97.85
2022-08-17T07:41:53.105Z,96.25
2022-08-17T07:44:24.052Z,96.98
2022-08-17T07:47:15.666Z,95.99
2022-08-17T07:49:48.910Z,95.97
2022-08-17T07:52:51.217Z,95.44
2022-08-17T07:55:35.945Z,94.64
2022-08-17T07:58:17.133Z,95.28
2022-08-17T08:01:10.496Z,94.67
2022-08-17T08:03:46.080Z,95.79
2022-08-17T08:06:27.584Z,94.90
2022-08-17T08:09:00.875Z,95.36
2022-08-17T08:11:36.553Z,93.64
2022-08-17T08:14:28.380Z,94.60
2022-08-17T08:17:04.943Z,95.79
2022-08-17T08:19:38.739Z,95.86
2022-08-17T08:22:29.440Z,95.44
2022-08-17T08:25:37.182Z,93.28
2022-08-17T08:28:24.618Z,93.45
2022-08-17T08:31:08.236Z,93.58
2022-08-17T08:33:57.617Z,93.31
2022-08-17T08:36:59.338Z,90.66
2022-08-17T08:40:02.357Z,90.14
2022-08-17T08:42:56.670Z,84.48
2022-08-17T08:46:06.605Z,81.17
2022-08-17T08:48:56.128Z,83.57
2022-08-17T08:52:01.422Z,84.04
2022-08-17T08:54:56.868Z,84.10
2022-08-17T08:57:59.095Z,82.20
2022-08-17T09:00:35.798Z,81.27
2022-08-17T09:03:36.735Z,82.58
2022-08-17T09:06:32.243Z,81.48
2022-08-17T09:09:23.147Z,82.55
2022-08-17T09:12:04.961Z,81.39
2022-08-17T09:14:47.181Z,82.89
2022-08-17T09:17:47.041Z,83.87
2022-08-17T09:20:29.769Z,84.31
2022-08-17T09:23:08.473Z,83.69
2022-08-17T09:25:51.300Z,84.45
2022-08-17T09:28:34.132Z,84.80
2022-08-17T09:31:11.931Z,85.22
2022-08-17T09:33:48.246Z,85.77
2022-08-17T09:36:28.998Z,87.60
2022-08-17T09:39:25.681Z,90.68
2022-08-17T09:42:10.260Z,94.25
2022-08-17T09:45:24.072Z,97.14
2022-08-17T09:48:00.784Z,100.00
2022-08-17T09:51:03.266Z,100.00
2022-08-17T09:53:32.043Z,100.00
2022-08-17T09:56:26.259Z,100.00
2022-08-17T09:59:16.854Z,100.00
2022-08-17T10:02:05.711Z,100.00
2022-08-17T10:04:41.189Z,100.00
2022-08-17T10:07:26.306Z,100.00
2022-08-17T10:10:04.904Z,100.00
2022-08-17T10:12:53.220Z,100.00
2022-08-17T10:15:44.787Z,100.00
2022-08-17T10:18:40.333Z,100.00
2022-08-17T10:21:33.927Z,100.00
2022-08-17T10:24:33.001Z,100.00
2022-08-17T10:27:11.484Z,100.00
2022-08-17T10:29:58.298Z,100.00
2022-08-17T10:32:40.768Z,100.00
2022-08-17T10:35:31.280Z,100.00
2022-08-17T10:38:24.354Z,100.00
2022-08-17T10:41:01.367Z,100.00
2022-08-17T10:43:41.717Z,100.00
2022-08-17T10:46:30.102Z,100.00
2022-08-17T10:49:26.344Z,100.00
2022-08-17T10:52:01.928Z,100.00
2022-08-17T10:54:38.194Z,100.00
2022-08-17T10:57:29.189Z,100.00
2022-08-17T11:00:03.063Z,100.00
2022-08-17T11:02:45.745Z,100.00
2022-08-17T11:05:22.191Z,100.00
2022-08-17T11:08:12.606Z,100.00
2022-08-17T11:11:19.443Z,100.00
2022-08-17T11:13:51.923Z,100.00
2022-08-17T11:16:39.084Z,100.00
2022-08-17T11:19:17.638Z,100.00
2022-08-17T11:22:33.558Z,100.00
2022-08-17T11:25:16.692Z,100.00
2022-08-17T11:28:04.116Z,100.00
2022-08-17T11:30:48.591Z,100.00
2022-08-17T11:33:36.642Z,100.00
2022-08-17T11:36:28.126Z,100.00
2022-08-17T11:39:15.927Z,100.00
2022-08-17T11:42:05.817Z,100.00
2022-08-17T11:44:55.802Z,100.00
2022-08-17T11:48:31.704Z,100.00
2022-08-17T11:51:36.062Z,100.00
2022-08-17T11:54:34.413Z,100.00
2022-08-17T11:57:25.588Z,100.00
2022-08-17T12:00:10.580Z,100.00
2022-08-17T12:02:48.060Z,100.00
2022-08-17T12:05:27.376Z,100.00
2022-08-17T12:08:05.800Z,100.00
2022-08-17T12:10:58.113Z,100.00
2022-08-17T12:13:43.457Z,100.00
2022-08-17T12:16:18.735Z,100.00
2022-08-17T12:19:04.143Z,100.00
2022-08-17T12:21:40.225Z,100.00
2022-08-17T12:24:50.405Z,100.00
2022-08-17T12:28:04.256Z,100.00
2022-08-17T12:30:29.011Z,100.00
2022-08-17T12:33:01.537Z,100.00
2022-08-17T12:35:38.840Z,100.00
2022-08-17T12:38:32.718Z,100.00
2022-08-17T12:41:27.217Z,100.00
2022-08-17T12:44:04.004Z,100.00
2022-08-17T12:46:55.416Z,100.00
2022-08-17T12:49:42.231Z,100.00
2022-08-17T12:52:30.690Z,100.00
2022-08-17T12:55:06.831Z,100.00
2022-08-17T12:57:42.966Z,100.00
2022-08-17T13:00:18.109Z,100.00
2022-08-17T13:03:09.061Z,100.00
2022-08-17T13:06:03.450Z,100.00
2022-08-17T13:08:39.753Z,100.00
2022-08-17T13:11:18.621Z,100.00
2022-08-17T13:13:55.245Z,100.00
2022-08-17T13:16:31.873Z,100.00
2022-08-17T13:19:16.707Z,100.00
2022-08-17T13:21:53.005Z,100.00
2022-08-17T13:24:37.870Z,100.00
2022-08-17T13:27:13.317Z,100.00
2022-08-17T13:29:45.714Z,100.00
2022-08-17T13:32:44.073Z,100.00
2022-08-17T13:35:36.463Z,100.00
2022-08-17T13:38:14.139Z,100.00
2022-08-17T13:40:53.176Z,100.00
2022-08-17T13:43:45.031Z,100.00
2022-08-17T13:46:21.835Z,100.00
2022-08-17T13:49:11.682Z,100.00
2022-08-17T13:51:46.993Z,100.00
2022-08-17T13:54:35.763Z,100.00
2022-08-17T13:57:25.469Z,100.00
2022-08-17T14:00:17.401Z,100.00
2022-08-17T14:02:49.874Z,100.00
2022-08-17T14:05:22.344Z,100.00
2022-08-17T14:08:06.602Z,100.00
2022-08-17T14:10:40.092Z,100.00
2022-08-17T14:13:15.351Z,100.00
2022-08-17T14:15:55.132Z,100.00
2022-08-17T14:18:34.262Z,100.00
2022-08-17T14:21:21.778Z,100.00
2022-08-17T14:23:55.057Z,100.00
2022-08-17T14:26:27.723Z,100.00
2022-08-17T14:29:00.286Z,100.00
2022-08-17T14:31:37.406Z,100.00
2022-08-17T14:34:10.761Z,100.00
2022-08-17T14:36:45.563Z,100.00
2022-08-17T14:39:21.115Z,100.00
2022-08-17T14:41:55.020Z,100.00
2022-08-17T14:44:27.529Z,100.00
2022-08-17T14:46:59.945Z,100.00
2022-08-17T14:49:33.470Z,100.00
2022-08-17T14:52:06.199Z,100.00
2022-08-17T14:54:42.494Z,100.00
2022-08-17T14:57:33.439Z,100.00
2022-08-17T15:00:08.520Z,100.00
2022-08-17T15:02:48.336Z,100.00
2022-08-17T15:05:25.907Z,100.00
2022-08-17T15:07:59.882Z,100.00
2022-08-17T15:10:33.066Z,100.00
2022-08-17T15:13:20.855Z,100.00
2022-08-17T15:15:53.928Z,100.00
2022-08-17T15:18:26.638Z,100.00
2022-08-17T15:20:59.079Z,100.00
2022-08-17T15:23:32.025Z,100.00
2022-08-17T15:26:04.579Z,100.00
2022-08-17T15:28:37.743Z,100.00
2022-08-17T15:31:10.171Z,100.00
2022-08-17T15:33:42.603Z,100.00
2022-08-17T15:36:15.430Z,100.00
2022-08-17T15:38:47.985Z,100.00
2022-08-17T15:41:20.508Z,100.00
2022-08-17T15:43:53.044Z,100.00
2022-08-17T15:46:26.483Z,100.00
2022-08-17T15:49:00.413Z,100.00
2022-08-17T15:51:35.471Z,100.00
2022-08-17T15:54:22.121Z,100.00
2022-08-17T15:56:55.549Z,100.00
2022-08-17T15:59:30.278Z,100.00
2022-08-17T16:03:07.321Z,100.00
2022-08-17T16:04:57.202Z,100.00
2022-08-17T16:07:31.559Z,100.00
2022-08-17T16:10:06.316Z,100.00
2022-08-17T16:12:38.903Z,100.00
2022-08-17T16:15:12.077Z,100.00
2022-08-17T16:17:44.573Z,100.00
2022-08-17T16:20:20.254Z,100.00
2022-08-17T16:22:54.440Z,100.00
2022-08-17T16:25:38.322Z,100.00
2022-08-17T16:28:30.944Z,100.00
2022-08-17T16:31:09.345Z,100.00
2022-08-17T16:33:42.055Z,100.00
2022-08-17T16:36:15.175Z,100.00
2022-08-17T16:38:47.809Z,100.00
2022-08-17T16:41:48.485Z,100.00
2022-08-17T16:44:21.738Z,100.00
2022-08-17T16:46:54.612Z,100.00
2022-08-17T16:49:37.163Z,100.00
2022-08-17T16:52:11.152Z,100.00
2022-08-17T16:54:44.448Z,100.00
2022-08-17T16:57:17.507Z,100.00
2022-08-17T16:59:53.209Z,100.00
2022-08-17T17:02:32.264Z,100.00
2022-08-17T17:05:40.739Z,100.00
2022-08-17T17:08:26.743Z,100.00
2022-08-17T17:11:10.936Z,100.00
2022-08-17T17:13:49.400Z,100.00
2022-08-17T17:16:38.020Z,100.00
2022-08-17T17:19:35.068Z,100.00
2022-08-17T17:22:08.082Z,100.00
2022-08-17T17:25:05.855Z,100.00
2022-08-17T17:28:09.366Z,100.00
2022-08-17T17:31:08.001Z,100.00
2022-08-17T17:33:50.571Z,100.00
2022-08-17T17:36:29.858Z,100.00
2022-08-17T17:39:13.844Z,100.00
2022-08-17T17:41:51.323Z,100.00
2022-08-17T17:45:01.159Z,100.00
2022-08-17T17:47:34.422Z,100.00
2022-08-17T17:50:07.476Z,100.00
2022-08-17T17:52:57.732Z,100.00
2022-08-17T17:56:06.910Z,100.00
2022-08-17T17:59:12.958Z,100.00
2022-08-17T18:01:51.840Z,100.00
2022-08-17T18:04:40.754Z,100.00
2022-08-17T18:07:25.394Z,100.00
2022-08-17T18:10:30.298Z,100.00
2022-08-17T18:13:18.264Z,100.00
2022-08-17T18:16:00.576Z,100.00
2022-08-17T18:18:38.450Z,100.00
2022-08-17T18:21:21.310Z,100.00
2022-08-17T18:24:02.333Z,100.00
2022-08-17T18:26:45.922Z,100.00
2022-08-17T18:29:24.460Z,100.00
2022-08-17T18:32:15.559Z,100.00
2022-08-17T18:35:16.180Z,100.00
2022-08-17T18:37:52.612Z,100.00
2022-08-17T18:40:30.483Z,100.00
2022-08-17T18:43:13.990Z,100.00
2022-08-17T18:45:50.254Z,100.00
2022-08-17T18:48:48.725Z,100.00
2022-08-17T18:51:21.435Z,100.00
2022-08-17T18:54:24.016Z,100.00
2022-08-17T18:56:59.244Z,100.00
2022-08-17T18:59:42.204Z,100.00
2022-08-17T19:05:37.256Z,100.00
2022-08-17T19:08:29.688Z,100.00
2022-08-17T19:11:35.601Z,100.00
2022-08-17T19:14:12.165Z,100.00
2022-08-17T19:16:51.624Z,100.00
2022-08-17T19:19:34.084Z,100.00
2022-08-17T19:22:28.434Z,100.00
2022-08-17T19:25:16.905Z,100.00
2022-08-17T19:28:01.656Z,100.00
2022-08-17T19:30:36.949Z,100.00
2022-08-17T19:33:13.479Z,100.00
2022-08-17T19:35:54.024Z,100.00
2022-08-17T19:38:32.279Z,100.00
2022-08-17T19:41:14.774Z,100.00
2022-08-17T19:44:27.014Z,100.00
2022-08-17T19:47:36.467Z,100.00
2022-08-17T19:50:47.393Z,100.00
2022-08-17T19:54:08.479Z,100.00
2022-08-17T19:57:04.707Z,100.00
2022-08-17T20:00:13.507Z,100.00
2022-08-17T20:02:55.442Z,100.00
2022-08-17T20:05:54.650Z,100.00
2022-08-17T20:08:38.352Z,100.00
2022-08-17T20:11:19.282Z,100.00
2022-08-17T20:14:06.850Z,100.00
2022-08-17T20:16:39.591Z,100.00
2022-08-17T20:19:33.342Z,100.00
2022-08-17T20:22:23.258Z,100.00
2022-08-17T20:25:09.435Z,100.00
2022-08-17T20:28:05.716Z,100.00
2022-08-17T20:30:41.076Z,100.00
2022-08-17T20:33:33.745Z,100.00
2022-08-17T20:36:22.626Z,100.00
2022-08-17T20:38:59.623Z,100.00
2022-08-17T20:42:03.286Z,100.00
2022-08-17T20:44:39.311Z,100.00
2022-08-17T20:48:15.291Z,100.00
2022-08-17T20:50:47.024Z,100.00
2022-08-17T20:53:54.820Z,100.00
2022-08-17T20:56:43.346Z,100.00
2022-08-17T20:59:25.751Z,100.00
2022-08-17T21:02:17.455Z,100.00
2022-08-17T21:04:52.262Z,100.00
2022-08-17T21:07:42.754Z,100.00
2022-08-17T21:10:22.296Z,100.00
2022-08-17T21:13:16.043Z,100.00
2022-08-17T21:15:58.966Z,100.00
2022-08-17T21:18:54.315Z,100.00
2022-08-17T21:21:46.845Z,100.00
2022-08-17T21:24:58.887Z,100.00
2022-08-17T21:27:41.975Z,100.00
2022-08-17T21:30:42.649Z,100.00
2022-08-17T21:33:18.415Z,100.00
2022-08-17T21:36:13.087Z,100.00
2022-08-17T21:38:48.823Z,100.00
2022-08-17T21:41:27.367Z,100.00
2022-08-17T21:44:30.485Z,100.00
2022-08-17T21:47:24.622Z,100.00
2022-08-17T21:50:16.376Z,100.00
2022-08-17T21:52:54.125Z,100.00
2022-08-17T21:55:30.168Z,100.00
2022-08-17T21:58:14.655Z,100.00
2022-08-17T22:01:25.673Z,100.00
2022-08-17T22:04:27.462Z,100.00
2022-08-17T22:07:03.868Z,100.00
2022-08-17T22:09:46.252Z,100.00
2022-08-17T22:12:24.370Z,100.00
2022-08-17T22:15:01.896Z,100.00
2022-08-17T22:17:49.442Z,100.00
2022-08-17T22:20:22.542Z,100.00
2022-08-17T22:23:13.632Z,100.00
2022-08-17T22:26:06.852Z,100.00
2022-08-17T22:28:52.325Z,100.00
2022-08-17T22:31:24.846Z,100.00
2022-08-17T22:34:00.054Z,100.00
2022-08-17T22:36:33.770Z,100.00
2022-08-17T22:39:09.266Z,100.00
2022-08-17T22:41:48.224Z,100.00
2022-08-17T22:44:37.707Z,100.00
2022-08-17T22:47:17.030Z,100.00
2022-08-17T22:49:57.988Z,100.00
2022-08-17T22:53:03.351Z,100.00
2022-08-17T22:55:54.617Z,100.00
2022-08-17T22:58:59.206Z,100.00
2022-08-17T23:01:34.830Z,100.00
2022-08-17T23:04:29.192Z,100.00
2022-08-17T23:07:01.738Z,100.00
2022-08-17T23:09:36.037Z,100.00
2022-08-17T23:12:14.862Z,100.00
2022-08-17T23:14:51.236Z,100.00
2022-08-17T23:17:24.351Z,100.00
2022-08-17T23:19:57.031Z,100.00
2022-08-17T23:22:29.814Z,100.00
2022-08-17T23:25:02.662Z,100.00
2022-08-17T23:27:35.224Z,100.00
2022-08-17T23:30:11.110Z,100.00
2022-08-17T23:32:53.262Z,100.00
2022-08-17T23:35:40.613Z,100.00
2022-08-17T23:38:15.549Z,100.00
2022-08-17T23:40:48.029Z,100.00
2022-08-17T23:43:25.618Z,100.00
2022-08-17T23:46:03.618Z,100.00
2022-08-17T23:48:37.441Z,100.00
2022-08-17T23:51:20.945Z,100.00
2022-08-17T23:54:05.673Z,100.00
2022-08-17T23:56:46.973Z,100.00
2022-08-17T23:59:27.635Z,100.00
